createdAt,value
2022-10-15T00:00:19.410Z,75.30
2022-10-15T00:03:50.185Z,75.30
2022-10-15T00:08:32.271Z,75.10
2022-10-15T00:11:09.885Z,75.10
2022-10-15T00:14:20.370Z,75.10
2022-10-15T00:17:26.808Z,75.20
2022-10-15T00:19:59.229Z,75.30
2022-10-15T00:22:29.089Z,75.00
2022-10-15T00:24:58.554Z,75.00
2022-10-15T00:27:28.432Z,75.00
2022-10-15T00:30:00.479Z,75.00
2022-10-15T00:32:30.555Z,75.00
2022-10-15T00:35:01.869Z,75.00
2022-10-15T00:37:32.639Z,75.00
2022-10-15T00:42:35.580Z,75.00
2022-10-15T00:45:06.371Z,74.90
2022-10-15T00:47:41.273Z,75.00
2022-10-15T00:50:18.800Z,75.00
2022-10-15T00:52:59.589Z,74.90
2022-10-15T00:55:32.702Z,74.80
2022-10-15T00:58:08.332Z,74.70
2022-10-15T05:36:29.011Z,74.70
2022-10-15T05:48:33.768Z,74.40
2022-10-15T06:55:50.026Z,75.20
2022-10-15T06:59:45.967Z,75.20
2022-10-15T07:08:00.718Z,75.40
2022-10-15T07:11:28.862Z,75.50
2022-10-15T07:18:28.847Z,75.60
2022-10-15T07:21:47.464Z,75.40
2022-10-15T07:25:42.663Z,75.40
2022-10-15T07:36:11.583Z,75.50
2022-10-15T07:43:39.680Z,75.50
2022-10-15T07:55:28.515Z,75.90
2022-10-15T08:02:29.184Z,76.00
2022-10-15T08:18:57.442Z,76.30
2022-10-15T08:29:55.761Z,77.00
2022-10-15T08:32:42.922Z,76.20
2022-10-15T08:35:58.925Z,76.30
2022-10-15T08:38:58.797Z,76.30
2022-10-15T08:42:01.317Z,76.30
2022-10-15T08:44:55.168Z,76.40
2022-10-15T08:47:59.578Z,76.40
2022-10-15T08:50:50.441Z,76.40
2022-10-15T08:53:54.202Z,76.50
2022-10-15T08:56:48.917Z,76.60
2022-10-15T08:59:42.789Z,76.70
2022-10-15T09:02:24.563Z,76.60
2022-10-15T09:05:17.714Z,76.50
2022-10-15T09:07:59.072Z,76.30
2022-10-15T09:10:49.854Z,76.40
2022-10-15T09:13:50.053Z,76.40
2022-10-15T09:16:58.047Z,76.40
2022-10-15T09:20:08.559Z,76.20
2022-10-15T09:23:39.653Z,76.00
2022-10-15T09:30:43.199Z,76.20
2022-10-15T09:33:42.171Z,76.20
2022-10-15T09:41:13.036Z,76.20
2022-10-15T09:44:17.423Z,76.10
2022-10-15T09:47:31.343Z,75.90
2022-10-15T09:50:50.265Z,75.80
2022-10-15T09:53:58.092Z,75.60
2022-10-15T09:57:21.012Z,75.60
2022-10-15T10:00:38.551Z,75.30
2022-10-15T10:03:47.496Z,75.20
2022-10-15T10:06:53.674Z,75.20
2022-10-15T10:09:35.375Z,75.20
2022-10-15T10:12:25.437Z,75.10
2022-10-15T10:15:07.874Z,74.90
2022-10-15T10:18:02.636Z,75.00
2022-10-15T10:21:14.530Z,75.60
2022-10-15T10:24:25.868Z,74.90
2022-10-15T10:27:24.161Z,75.20
2022-10-15T10:30:07.972Z,75.20
2022-10-15T10:32:42.878Z,75.30
2022-10-15T10:35:26.098Z,75.40
2022-10-15T10:38:23.615Z,75.50
2022-10-15T10:40:59.147Z,75.50
2022-10-15T10:43:36.789Z,75.50
2022-10-15T10:46:32.980Z,75.60
2022-10-15T10:49:51.709Z,75.80
2022-10-15T10:52:48.890Z,75.70
2022-10-15T10:55:44.198Z,75.50
2022-10-15T10:58:51.558Z,75.80
2022-10-15T11:01:53.964Z,75.90
2022-10-15T11:05:37.438Z,75.90
2022-10-15T11:08:40.409Z,76.10
2022-10-15T11:11:35.989Z,76.20
2022-10-15T11:14:38.606Z,76.20
2022-10-15T11:17:33.916Z,76.20
2022-10-15T11:20:38.989Z,76.10
2022-10-15T11:24:10.048Z,76.10
2022-10-15T11:27:40.905Z,76.20
2022-10-15T11:30:31.845Z,76.50
2022-10-15T11:33:26.231Z,76.50
2022-10-15T11:36:24.231Z,76.60
2022-10-15T11:39:15.033Z,76.80
2022-10-15T11:42:15.054Z,76.90
2022-10-15T11:45:31.292Z,77.30
2022-10-15T11:48:34.069Z,77.50
2022-10-15T11:51:24.776Z,77.50
2022-10-15T11:54:29.280Z,77.20
2022-10-15T11:57:09.938Z,77.50
2022-10-15T12:00:00.920Z,77.40
2022-10-15T12:02:43.255Z,77.40
2022-10-15T12:05:36.221Z,77.50
2022-10-15T12:08:11.625Z,77.30
2022-10-15T12:11:14.070Z,77.30
2022-10-15T12:14:06.103Z,77.20
2022-10-15T12:20:28.685Z,76.80
2022-10-15T12:23:01.193Z,76.70
2022-10-15T12:25:46.909Z,76.90
2022-10-15T12:28:20.358Z,76.70
2022-10-15T12:31:01.895Z,76.70
2022-10-15T12:33:38.082Z,76.60
2022-10-15T12:36:22.755Z,76.40
2022-10-15T12:39:00.706Z,76.40
2022-10-15T12:41:40.006Z,77.20
2022-10-15T12:44:16.872Z,76.30
2022-10-15T12:46:45.494Z,76.40
2022-10-15T12:49:48.786Z,76.30
2022-10-15T12:53:05.526Z,76.50
2022-10-15T12:55:37.350Z,77.50
2022-10-15T12:58:35.339Z,76.60
2022-10-15T13:01:08.706Z,76.60
2022-10-15T13:03:40.363Z,76.60
2022-10-15T13:06:27.538Z,76.80
2022-10-15T13:09:25.260Z,76.90
2022-10-15T13:11:55.711Z,76.80
2022-10-15T13:14:36.107Z,76.70
2022-10-15T13:17:08.299Z,76.80
2022-10-15T13:19:40.819Z,76.80
2022-10-15T13:22:23.831Z,76.80
2022-10-15T13:24:55.706Z,76.80
2022-10-15T13:27:26.840Z,76.90
2022-10-15T13:29:58.057Z,76.90
2022-10-15T13:32:29.227Z,77.10
2022-10-15T13:34:58.414Z,77.20
2022-10-15T13:37:33.010Z,77.20
2022-10-15T13:40:07.609Z,77.20
2022-10-15T13:42:37.040Z,77.00
2022-10-15T13:45:17.829Z,77.00
2022-10-15T13:47:50.725Z,76.90
2022-10-15T13:50:23.786Z,76.90
2022-10-15T13:52:56.806Z,76.90
2022-10-15T13:55:30.198Z,76.90
2022-10-15T13:58:03.405Z,76.80
2022-10-15T14:00:35.499Z,76.70
2022-10-15T14:03:17.154Z,76.60
2022-10-15T14:05:47.725Z,76.70
2022-10-15T14:08:26.688Z,76.60
2022-10-15T14:10:59.949Z,76.50
2022-10-15T14:13:29.856Z,76.50
2022-10-15T14:16:14.282Z,76.50
2022-10-15T14:18:48.299Z,76.50
2022-10-15T14:21:21.085Z,76.50
2022-10-15T14:23:51.096Z,76.40
2022-10-15T14:26:26.319Z,76.20
2022-10-15T14:28:55.981Z,76.20
2022-10-15T14:31:34.683Z,76.20
2022-10-15T14:34:03.245Z,76.10
2022-10-15T14:36:33.589Z,76.10
2022-10-15T14:39:30.814Z,76.10
2022-10-15T14:42:03.197Z,76.00
2022-10-15T14:44:52.602Z,76.10
2022-10-15T14:47:24.565Z,76.10
2022-10-15T14:49:56.682Z,76.10
2022-10-15T14:52:25.491Z,76.10
2022-10-15T14:55:03.420Z,76.10
2022-10-15T14:57:38.199Z,76.20
2022-10-15T15:00:15.628Z,76.20
2022-10-15T15:02:44.635Z,76.10
2022-10-15T15:05:23.215Z,76.20
2022-10-15T15:07:52.811Z,76.10
2022-10-15T15:10:22.007Z,76.20
2022-10-15T15:12:55.496Z,76.20
2022-10-15T15:15:27.687Z,76.20
2022-10-15T15:17:56.778Z,76.20
2022-10-15T15:20:25.947Z,76.20
2022-10-15T15:22:56.220Z,76.00
2022-10-15T15:25:30.964Z,76.00
2022-10-15T15:28:01.456Z,76.20
2022-10-15T15:30:32.743Z,76.30
2022-10-15T15:33:02.133Z,76.30
2022-10-15T15:35:38.144Z,76.30
2022-10-15T15:38:08.649Z,76.50
2022-10-15T15:40:37.681Z,76.40
2022-10-15T15:43:07.518Z,76.50
2022-10-15T15:45:36.735Z,76.50
2022-10-15T15:48:05.860Z,76.60
2022-10-15T15:50:35.330Z,76.70
2022-10-15T15:53:04.439Z,76.80
2022-10-15T15:55:32.992Z,76.90
2022-10-15T15:58:01.452Z,76.90
2022-10-15T16:00:31.423Z,76.80
2022-10-15T16:03:00.232Z,76.80
2022-10-15T16:05:28.697Z,76.80
2022-10-15T16:07:57.045Z,77.00
2022-10-15T16:10:25.638Z,76.90
2022-10-15T16:12:55.922Z,77.00
2022-10-15T16:15:24.376Z,77.00
2022-10-15T16:17:54.281Z,77.00
2022-10-15T16:20:23.695Z,76.90
2022-10-15T16:22:52.913Z,77.00
2022-10-15T16:25:24.151Z,77.00
2022-10-15T16:27:56.712Z,77.10
2022-10-15T16:30:25.179Z,77.10
2022-10-15T16:32:56.163Z,77.10
2022-10-15T16:35:24.961Z,77.20
2022-10-15T16:37:56.024Z,77.20
2022-10-15T16:40:25.836Z,77.20
2022-10-15T16:42:54.593Z,77.20
2022-10-15T16:45:23.123Z,77.20
2022-10-15T16:47:51.740Z,77.20
2022-10-15T16:50:21.828Z,77.30
2022-10-15T16:52:50.474Z,77.40
2022-10-15T16:55:19.186Z,77.40
2022-10-15T16:57:47.729Z,77.50
2022-10-15T17:00:16.471Z,77.50
2022-10-15T17:02:47.707Z,77.60
2022-10-15T17:05:18.399Z,77.60
2022-10-15T17:07:50.677Z,77.60
2022-10-15T17:10:25.509Z,78.50
2022-10-15T17:12:54.574Z,77.70
2022-10-15T17:15:25.257Z,77.70
2022-10-15T17:17:53.857Z,77.60
2022-10-15T17:20:22.362Z,77.70
2022-10-15T17:22:52.712Z,77.80
2022-10-15T17:25:21.275Z,78.10
2022-10-15T17:27:52.505Z,78.20
2022-10-15T17:30:20.884Z,78.20
2022-10-15T17:32:50.836Z,78.20
2022-10-15T17:35:22.203Z,78.20
2022-10-15T17:37:52.451Z,78.20
2022-10-15T17:40:22.908Z,78.10
2022-10-15T17:42:51.524Z,78.10
2022-10-15T17:45:20.056Z,78.20
2022-10-15T17:47:53.094Z,78.10
2022-10-15T17:50:21.783Z,78.20
2022-10-15T17:52:50.122Z,78.20
2022-10-15T17:55:20.327Z,78.10
2022-10-15T17:57:48.712Z,78.10
2022-10-15T18:00:19.315Z,78.10
2022-10-15T18:02:50.231Z,78.10
2022-10-15T18:05:18.780Z,78.10
2022-10-15T18:07:47.153Z,78.00
2022-10-15T18:10:15.722Z,77.90
2022-10-15T18:12:45.854Z,77.80
2022-10-15T18:15:14.737Z,77.80
2022-10-15T18:17:43.218Z,77.70
2022-10-15T18:20:13.528Z,77.50
2022-10-15T18:22:43.148Z,77.40
2022-10-15T18:25:11.904Z,77.30
2022-10-15T18:27:40.270Z,77.20
2022-10-15T18:30:12.538Z,77.00
2022-10-15T18:32:40.945Z,77.10
2022-10-15T18:35:09.932Z,76.90
2022-10-15T18:37:38.446Z,77.00
2022-10-15T18:40:09.049Z,77.10
2022-10-15T18:42:37.463Z,77.10
2022-10-15T18:45:06.885Z,77.20
2022-10-15T18:47:37.249Z,77.20
2022-10-15T18:50:07.406Z,77.10
2022-10-15T18:52:39.776Z,77.10
2022-10-15T18:55:10.107Z,77.00
2022-10-15T18:57:43.853Z,76.90
2022-10-15T19:00:14.542Z,76.90
2022-10-15T19:02:44.372Z,77.00
2022-10-15T19:05:12.843Z,77.70
2022-10-15T19:07:41.155Z,76.80
2022-10-15T19:10:16.465Z,77.70
2022-10-15T19:12:48.192Z,76.90
2022-10-15T19:15:16.887Z,76.90
2022-10-15T19:17:46.811Z,76.90
2022-10-15T19:20:15.145Z,76.80
2022-10-15T19:22:43.523Z,76.80
2022-10-15T19:25:11.886Z,76.80
2022-10-15T19:27:41.462Z,76.80
2022-10-15T19:30:11.308Z,76.80
2022-10-15T19:32:39.720Z,77.60
2022-10-15T19:35:12.455Z,76.70
2022-10-15T19:37:43.396Z,76.60
2022-10-15T19:40:11.919Z,76.70
2022-10-15T19:42:40.365Z,76.50
2022-10-15T19:45:10.042Z,76.50
2022-10-15T19:47:38.874Z,76.50
2022-10-15T19:50:08.848Z,76.40
2022-10-15T19:52:38.684Z,76.40
2022-10-15T19:55:08.384Z,76.40
2022-10-15T19:57:36.819Z,76.40
2022-10-15T20:00:07.436Z,76.30
2022-10-15T20:02:40.974Z,76.30
2022-10-15T20:05:10.068Z,76.20
2022-10-15T20:07:39.887Z,76.30
2022-10-15T20:10:10.786Z,76.30
2022-10-15T20:12:39.499Z,76.20
2022-10-15T20:15:10.024Z,76.20
2022-10-15T20:17:38.794Z,76.20
2022-10-15T20:20:07.997Z,76.20
2022-10-15T20:22:36.404Z,76.90
2022-10-15T20:25:07.422Z,75.80
2022-10-15T20:27:36.491Z,75.80
2022-10-15T20:30:05.932Z,75.80
2022-10-15T20:32:36.058Z,75.80
2022-10-15T20:35:06.323Z,75.80
2022-10-15T20:37:34.927Z,75.60
2022-10-15T20:40:03.492Z,75.50
2022-10-15T20:42:37.520Z,75.50
2022-10-15T20:45:07.248Z,75.40
2022-10-15T20:47:37.476Z,75.40
2022-10-15T20:50:08.142Z,75.40
2022-10-15T20:52:36.673Z,75.20
2022-10-15T20:55:06.133Z,75.30
2022-10-15T20:57:36.616Z,75.30
2022-10-15T21:00:08.586Z,75.20
2022-10-15T21:02:36.999Z,75.20
2022-10-15T21:05:06.352Z,75.20
2022-10-15T21:07:34.851Z,75.10
2022-10-15T21:10:03.608Z,75.20
2022-10-15T21:12:31.960Z,75.20
2022-10-15T21:15:01.961Z,75.10
2022-10-15T21:17:30.346Z,75.10
2022-10-15T21:19:58.838Z,75.20
2022-10-15T21:22:27.231Z,75.20
2022-10-15T21:24:55.989Z,75.20
2022-10-15T21:27:24.672Z,75.10
2022-10-15T21:29:53.209Z,75.10
2022-10-15T21:32:23.278Z,75.10
2022-10-15T21:34:51.751Z,75.10
2022-10-15T21:37:20.281Z,75.20
2022-10-15T21:39:48.651Z,75.10
2022-10-15T21:42:17.293Z,75.10
2022-10-15T21:44:45.775Z,75.10
2022-10-15T21:47:15.352Z,75.10
2022-10-15T21:49:45.801Z,75.00
2022-10-15T21:52:14.403Z,75.00
2022-10-15T21:54:42.961Z,75.00
2022-10-15T21:57:11.463Z,75.10
2022-10-15T21:59:39.833Z,75.00
2022-10-15T22:02:08.326Z,75.00
2022-10-15T22:04:36.917Z,74.80
2022-10-15T22:07:09.191Z,74.90
2022-10-15T22:09:37.953Z,74.90
2022-10-15T22:12:07.285Z,74.90
2022-10-15T22:14:36.155Z,74.90
2022-10-15T22:17:04.606Z,74.90
2022-10-15T22:19:32.946Z,75.10
2022-10-15T22:22:01.580Z,74.90
2022-10-15T22:24:32.722Z,74.90
2022-10-15T22:27:01.040Z,74.90
2022-10-15T22:29:33.030Z,74.90
2022-10-15T22:32:03.550Z,74.80
2022-10-15T22:34:31.916Z,74.80
2022-10-15T22:37:00.323Z,74.80
2022-10-15T22:39:29.002Z,74.80
2022-10-15T22:41:58.774Z,74.80
2022-10-15T22:44:27.080Z,74.70
2022-10-15T22:46:55.451Z,74.80
2022-10-15T22:49:25.553Z,74.70
2022-10-15T22:51:53.906Z,74.80
2022-10-15T22:54:23.871Z,74.70
2022-10-15T22:56:52.764Z,74.60
2022-10-15T22:59:22.621Z,74.70
2022-10-15T23:01:51.241Z,74.60
2022-10-15T23:04:19.735Z,74.60
2022-10-15T23:06:48.645Z,74.60
2022-10-15T23:09:19.864Z,74.60
2022-10-15T23:11:48.276Z,74.60
2022-10-15T23:14:18.473Z,74.60
2022-10-15T23:16:49.488Z,74.50
2022-10-15T23:19:20.829Z,74.50
2022-10-15T23:21:51.511Z,74.50
2022-10-15T23:24:22.793Z,74.50
2022-10-15T23:26:51.968Z,74.50
2022-10-15T23:29:22.814Z,74.50
2022-10-15T23:31:54.346Z,74.50
2022-10-15T23:34:25.965Z,74.50
2022-10-15T23:36:54.885Z,74.50
2022-10-15T23:39:25.649Z,74.40
2022-10-15T23:41:54.368Z,74.40
2022-10-15T23:44:25.537Z,74.40
2022-10-15T23:46:56.184Z,74.40
2022-10-15T23:49:24.654Z,74.40
2022-10-15T23:51:53.045Z,74.40
2022-10-15T23:54:22.072Z,74.40
2022-10-15T23:56:50.663Z,74.40
2022-10-15T23:59:19.005Z,74.40
